Star Ismene — LANT5 — position and weather

sailwx.info

Track history (hours):
 
Tides and Currents Weather Stations Pressure Air Temp Water Temp Dewpoint Dewpoint Depression Visibility Wind Speed Wind Dir Waves Ship Positions

Star Ismene

Last reported at 2018-Feb-20 07:41 UTC. Time now 2018-Feb-25 00:20 UTC.
Position N 29°44' W 095°17'.

Type: Ship (hazmat cat A). MMSI: 257532000.

Date/timePositionNaut miles runAvg speedWind from/ knotsBaromVisibWave heightAir tempDewpointWater temp
2018-Feb-20 07:41N 29°44' W 095°17'0 0.1
2018-Feb-20 05:52N 29°44' W 095°17'2 4.6
2018-Feb-20 05:29N 29°43' W 095°15'3 5.4
2018-Feb-20 05:00N 29°44' W 095°12'3 6.1
2018-Feb-20 04:29N 29°44' W 095°08'3 6.4
2018-Feb-20 04:00N 29°46' W 095°05'4 8.4
2018-Feb-20 03:30N 29°43' W 095°01'5 9.9
2018-Feb-20 03:00N 29°39' W 094°58'510.4
2018-Feb-20 02:29N 29°34' W 094°56'611.4
2018-Feb-20 02:00N 29°30' W 094°52'612.1
2018-Feb-20 01:30N 29°24' W 094°49'15 2.8
2018-Feb-19 20:20N 29°15' W 094°36'0 0.0
2018-Feb-19 19:50N 29°15' W 094°36'0 0.0
2018-Feb-19 19:29N 29°15' W 094°36'0 0.0
2018-Feb-19 18:44N 29°15' W 094°36'0 0.0
2018-Feb-19 18:05N 29°15' W 094°36'0 0.0
2018-Feb-19 17:56N 29°15' W 094°36'0 0.0
2018-Feb-19 17:26N 29°15' W 094°36'0 0.0
2018-Feb-19 16:50N 29°15' W 094°36'0 0.0
2018-Feb-19 16:23N 29°15' W 094°36'0 0.0
2018-Feb-19 15:59N 29°15' W 094°36'0 0.0
2018-Feb-19 15:26N 29°15' W 094°36'0 0.0
2018-Feb-19 14:59N 29°15' W 094°36'0 0.0
2018-Feb-19 14:17N 29°15' W 094°36'0 0.0
2018-Feb-19 13:59N 29°15' W 094°36'0 0.0
2018-Feb-19 13:29N 29°15' W 094°36'0 0.0
2018-Feb-19 12:53N 29°15' W 094°36'0 0.0
2018-Feb-19 12:29N 29°15' W 094°36'0 0.0
2018-Feb-19 11:53N 29°15' W 094°36'0 0.0
2018-Feb-19 11:26N 29°15' W 094°36'0 0.0
2018-Feb-19 10:59N 29°15' W 094°36'0 0.0
2018-Feb-19 10:29N 29°15' W 094°36'0 0.0
2018-Feb-19 09:59N 29°15' W 094°36'0 0.0
2018-Feb-19 09:29N 29°15' W 094°36'0 0.0
2018-Feb-19 08:56N 29°15' W 094°36'0 0.0
2018-Feb-19 08:23N 29°15' W 094°36'0 0.0
2018-Feb-19 07:59N 29°15' W 094°36'0 0.0
2018-Feb-19 07:29N 29°15' W 094°36'0 0.0
2018-Feb-19 06:53N 29°15' W 094°36'0 0.0
2018-Feb-19 06:29N 29°15' W 094°36'0 0.0
2018-Feb-19 05:59N 29°15' W 094°36'0 0.0
2018-Feb-19 05:20N 29°15' W 094°36'0 0.0
2018-Feb-19 04:59N 29°15' W 094°36'0 0.0
2018-Feb-19 04:26N 29°15' W 094°36'0 0.0
2018-Feb-19 03:56N 29°15' W 094°36'0 0.0
2018-Feb-18 17:41N 29°15' W 094°36'0 0.0
2018-Feb-18 14:59N 29°15' W 094°36'0 0.0
2018-Feb-18 13:56N 29°15' W 094°36'0 0.0
2018-Feb-18 08:47N 29°15' W 094°36'0 0.0
2018-Feb-18 05:26N 29°15' W 094°36'0 0.0
2018-Feb-18 02:08N 29°15' W 094°36'0 0.0
2018-Feb-18 01:59N 29°15' W 094°36'0 0.0
2018-Feb-18 01:17N 29°15' W 094°36'0 0.0
2018-Feb-18 00:50N 29°15' W 094°36'0 0.0
2018-Feb-18 00:14N 29°15' W 094°36'0 0.0
2018-Feb-17 23:44N 29°15' W 094°36'0 0.0
2018-Feb-17 23:26N 29°15' W 094°36'0 0.0
2018-Feb-17 22:44N 29°15' W 094°36'0 0.0
2018-Feb-17 22:23N 29°15' W 094°36'0 0.0
2018-Feb-17 21:53N 29°15' W 094°36'0 0.0
2018-Feb-17 21:26N 29°15' W 094°36'0 0.0
2018-Feb-17 20:59N 29°15' W 094°36'0 0.0
2018-Feb-17 09:14N 29°15' W 094°36'0 0.0
2018-Feb-17 08:56N 29°15' W 094°36'0 0.0
2018-Feb-17 08:23N 29°15' W 094°36'0 0.0
2018-Feb-17 07:38N 29°15' W 094°36'0 0.0
2018-Feb-17 07:20N 29°15' W 094°36'0 0.0
2018-Feb-17 06:59N 29°15' W 094°36'0 0.0
2018-Feb-17 06:29N 29°15' W 094°36'0 0.0
2018-Feb-17 05:59N 29°15' W 094°36'0 0.0
2018-Feb-17 05:29N 29°15' W 094°36'0 0.0
2018-Feb-17 04:59N 29°15' W 094°36'0 0.0
2018-Feb-17 04:20N 29°15' W 094°36'0 0.0
2018-Feb-17 03:59N 29°15' W 094°36'0 0.0
2018-Feb-17 03:26N 29°15' W 094°36'0 0.0
2018-Feb-17 02:59N 29°15' W 094°36'0 0.0
2018-Feb-17 02:29N 29°15' W 094°36'0 0.0
2018-Feb-17 01:53N 29°15' W 094°36'0 0.0
2018-Feb-17 01:17N 29°15' W 094°36'0 0.0
2018-Feb-17 00:53N 29°15' W 094°36'0 0.0
2018-Feb-17 00:29N 29°15' W 094°36'0 0.0
2018-Feb-16 23:56N 29°15' W 094°36'0 0.0
2018-Feb-16 23:29N 29°15' W 094°36'0 0.0
2018-Feb-16 22:59N 29°15' W 094°36'0 0.0
2018-Feb-16 22:29N 29°15' W 094°36'0 0.0
2018-Feb-16 21:50N 29°15' W 094°36'25 2.7
2018-Feb-16 12:37N 28°51' W 094°25'213.7
2018-Feb-16 12:30N 28°50' W 094°25'713.6
2018-Feb-16 12:00N 28°43' W 094°25'713.3
2018-Feb-16 11:31N 28°37' W 094°25'713.4
2018-Feb-16 11:00N 28°30' W 094°24'713.4
2018-Feb-16 10:31N 28°23' W 094°24'813.3
2018-Feb-16 09:54N 28°15' W 094°25'2913.4
2018-Feb-16 07:44N 27°46' W 094°25'413.4
2018-Feb-16 07:25N 27°42' W 094°25'2513.8
2018-Feb-16 05:35N 27°17' W 094°26'313.6
2018-Feb-16 05:22N 27°14' W 094°26'46815.1
2018-Feb-14 22:26N 19°33' W 095°55'714.9
2018-Feb-14 22:00N 19°26' W 095°56'815.2
2018-Feb-14 21:30N 19°19' W 095°57'713.8
2018-Feb-14 21:01N 19°13' W 096°01'610.3
2018-Feb-14 20:27N 19°12' W 096°07'1 0.9
2018-Feb-14 18:49N 19°13' W 096°08'0 0.0
2018-Feb-14 18:10N 19°13' W 096°08'0 0.0
2018-Feb-14 17:52N 19°13' W 096°08'0 0.0
2018-Feb-14 17:28N 19°13' W 096°08'0 0.0
2018-Feb-14 16:55N 19°13' W 096°08'0 0.0
2018-Feb-14 16:07N 19°13' W 096°08'0 0.0
2018-Feb-14 15:37N 19°13' W 096°08'0 0.0
2018-Feb-14 15:19N 19°13' W 096°08'0 0.0
2018-Feb-14 14:58N 19°13' W 096°08'0 0.0
2018-Feb-14 14:04N 19°13' W 096°08'0 0.0
2018-Feb-14 13:43N 19°13' W 096°08'0 0.0
2018-Feb-14 13:27N 19°13' W 096°08'0 0.0
2018-Feb-14 11:30N 19°13' W 096°08'0 0.0
2018-Feb-14 09:39N 19°13' W 096°08'0 0.0
2018-Feb-14 09:30N 19°13' W 096°08'0 0.0
2018-Feb-14 09:00N 19°13' W 096°08'0 0.0
2018-Feb-14 08:30N 19°13' W 096°08'0 0.0
2018-Feb-14 08:00N 19°13' W 096°08'0 0.0
2018-Feb-14 07:30N 19°13' W 096°08'0 0.0
2018-Feb-14 07:00N 19°13' W 096°08'0 0.0
2018-Feb-14 06:27N 19°13' W 096°08'0 0.0
2018-Feb-14 06:00N 19°13' W 096°08'0 0.0
2018-Feb-14 05:27N 19°13' W 096°08'0 0.0
2018-Feb-14 05:00N 19°13' W 096°08'0 0.0
2018-Feb-14 04:27N 19°13' W 096°08'0 0.0
2018-Feb-14 04:00N 19°13' W 096°08'0 0.0
2018-Feb-14 03:30N 19°13' W 096°08'0 0.0
2018-Feb-14 03:00N 19°13' W 096°08'0 0.0
2018-Feb-14 01:24N 19°13' W 096°08'0 0.0
2018-Feb-13 22:45N 19°13' W 096°08'0 0.0
2018-Feb-13 22:30N 19°13' W 096°08'0 0.0
2018-Feb-13 21:57N 19°13' W 096°08'0 0.0
2018-Feb-13 21:30N 19°13' W 096°08'0 0.0
2018-Feb-13 21:00N 19°13' W 096°08'0 0.0
2018-Feb-13 20:30N 19°13' W 096°08'0 0.0
2018-Feb-13 20:00N 19°13' W 096°08'0 0.0
2018-Feb-13 19:30N 19°13' W 096°08'0 0.0
2018-Feb-13 18:54N 19°13' W 096°08'0 0.0
2018-Feb-13 18:30N 19°13' W 096°08'0 0.0
2018-Feb-13 18:00N 19°13' W 096°08'0 0.0
2018-Feb-13 17:30N 19°13' W 096°08'0 0.0
2018-Feb-13 17:00N 19°13' W 096°08'0 0.0
2018-Feb-13 16:30N 19°13' W 096°08'0 0.0
2018-Feb-13 16:00N 19°13' W 096°08'0 0.0
2018-Feb-13 15:27N 19°13' W 096°08'0 0.0
2018-Feb-13 15:00N 19°13' W 096°08'0 0.0
2018-Feb-13 14:27N 19°13' W 096°08'0 0.0
2018-Feb-13 13:59N 19°13' W 096°08'0 0.0
2018-Feb-13 13:30N 19°13' W 096°08'1 1.1
2018-Feb-13 13:00N 19°12' W 096°08'3 7.0
2018-Feb-13 12:30N 19°11' W 096°04'4 8.0
2018-Feb-13 12:00N 19°14' W 096°00'5 9.4
2018-Feb-13 11:30N 19°18' W 096°00'612.2
2018-Feb-13 11:00N 19°24' W 096°02'510.0
2018-Feb-13 10:30N 19°29' W 096°04'713.5
2018-Feb-13 10:01N 19°35' W 096°07'  
Track history (hours):
 
Tides and Currents Weather Stations Pressure Air Temp Water Temp Dewpoint Dewpoint Depression Visibility Wind Speed Wind Dir Waves Ship Positions

Star Ismene

Last reported at 2018-Feb-20 07:41 UTC. Time now 2018-Feb-25 00:20 UTC.
Position N 29°44' W 095°17'.

Type: Ship (hazmat cat A). MMSI: 257532000.

Date/timePositionNaut miles runAvg speedWind from/ knotsBaromVisibWave heightAir tempDewpointWater temp
2018-Feb-20 07:41N 29°44' W 095°17'0 0.1
2018-Feb-20 05:52N 29°44' W 095°17'2 4.6
2018-Feb-20 05:29N 29°43' W 095°15'3 5.4
2018-Feb-20 05:00N 29°44' W 095°12'3 6.1
2018-Feb-20 04:29N 29°44' W 095°08'3 6.4
2018-Feb-20 04:00N 29°46' W 095°05'4 8.4
2018-Feb-20 03:30N 29°43' W 095°01'5 9.9
2018-Feb-20 03:00N 29°39' W 094°58'510.4
2018-Feb-20 02:29N 29°34' W 094°56'611.4
2018-Feb-20 02:00N 29°30' W 094°52'612.1
2018-Feb-20 01:30N 29°24' W 094°49'15 2.8
2018-Feb-19 20:20N 29°15' W 094°36'0 0.0
2018-Feb-19 19:50N 29°15' W 094°36'0 0.0
2018-Feb-19 19:29N 29°15' W 094°36'0 0.0
2018-Feb-19 18:44N 29°15' W 094°36'0 0.0
2018-Feb-19 18:05N 29°15' W 094°36'0 0.0
2018-Feb-19 17:56N 29°15' W 094°36'0 0.0
2018-Feb-19 17:26N 29°15' W 094°36'0 0.0
2018-Feb-19 16:50N 29°15' W 094°36'0 0.0
2018-Feb-19 16:23N 29°15' W 094°36'0 0.0
2018-Feb-19 15:59N 29°15' W 094°36'0 0.0
2018-Feb-19 15:26N 29°15' W 094°36'0 0.0
2018-Feb-19 14:59N 29°15' W 094°36'0 0.0
2018-Feb-19 14:17N 29°15' W 094°36'0 0.0
2018-Feb-19 13:59N 29°15' W 094°36'0 0.0
2018-Feb-19 13:29N 29°15' W 094°36'0 0.0
2018-Feb-19 12:53N 29°15' W 094°36'0 0.0
2018-Feb-19 12:29N 29°15' W 094°36'0 0.0
2018-Feb-19 11:53N 29°15' W 094°36'0 0.0
2018-Feb-19 11:26N 29°15' W 094°36'0 0.0
2018-Feb-19 10:59N 29°15' W 094°36'0 0.0
2018-Feb-19 10:29N 29°15' W 094°36'0 0.0
2018-Feb-19 09:59N 29°15' W 094°36'0 0.0
2018-Feb-19 09:29N 29°15' W 094°36'0 0.0
2018-Feb-19 08:56N 29°15' W 094°36'0 0.0
2018-Feb-19 08:23N 29°15' W 094°36'0 0.0
2018-Feb-19 07:59N 29°15' W 094°36'0 0.0
2018-Feb-19 07:29N 29°15' W 094°36'0 0.0
2018-Feb-19 06:53N 29°15' W 094°36'0 0.0
2018-Feb-19 06:29N 29°15' W 094°36'0 0.0
2018-Feb-19 05:59N 29°15' W 094°36'0 0.0
2018-Feb-19 05:20N 29°15' W 094°36'0 0.0
2018-Feb-19 04:59N 29°15' W 094°36'0 0.0
2018-Feb-19 04:26N 29°15' W 094°36'0 0.0
2018-Feb-19 03:56N 29°15' W 094°36'0 0.0
2018-Feb-18 17:41N 29°15' W 094°36'0 0.0
2018-Feb-18 14:59N 29°15' W 094°36'0 0.0
2018-Feb-18 13:56N 29°15' W 094°36'0 0.0
2018-Feb-18 08:47N 29°15' W 094°36'0 0.0
2018-Feb-18 05:26N 29°15' W 094°36'0 0.0
2018-Feb-18 02:08N 29°15' W 094°36'0 0.0
2018-Feb-18 01:59N 29°15' W 094°36'0 0.0
2018-Feb-18 01:17N 29°15' W 094°36'0 0.0
2018-Feb-18 00:50N 29°15' W 094°36'0 0.0
2018-Feb-18 00:14N 29°15' W 094°36'0 0.0
2018-Feb-17 23:44N 29°15' W 094°36'0 0.0
2018-Feb-17 23:26N 29°15' W 094°36'0 0.0
2018-Feb-17 22:44N 29°15' W 094°36'0 0.0
2018-Feb-17 22:23N 29°15' W 094°36'0 0.0
2018-Feb-17 21:53N 29°15' W 094°36'0 0.0
2018-Feb-17 21:26N 29°15' W 094°36'0 0.0
2018-Feb-17 20:59N 29°15' W 094°36'0 0.0
2018-Feb-17 09:14N 29°15' W 094°36'0 0.0
2018-Feb-17 08:56N 29°15' W 094°36'0 0.0
2018-Feb-17 08:23N 29°15' W 094°36'0 0.0
2018-Feb-17 07:38N 29°15' W 094°36'0 0.0
2018-Feb-17 07:20N 29°15' W 094°36'0 0.0
2018-Feb-17 06:59N 29°15' W 094°36'0 0.0
2018-Feb-17 06:29N 29°15' W 094°36'0 0.0
2018-Feb-17 05:59N 29°15' W 094°36'0 0.0
2018-Feb-17 05:29N 29°15' W 094°36'0 0.0
2018-Feb-17 04:59N 29°15' W 094°36'0 0.0
2018-Feb-17 04:20N 29°15' W 094°36'0 0.0
2018-Feb-17 03:59N 29°15' W 094°36'0 0.0
2018-Feb-17 03:26N 29°15' W 094°36'0 0.0
2018-Feb-17 02:59N 29°15' W 094°36'0 0.0
2018-Feb-17 02:29N 29°15' W 094°36'0 0.0
2018-Feb-17 01:53N 29°15' W 094°36'0 0.0
2018-Feb-17 01:17N 29°15' W 094°36'0 0.0
2018-Feb-17 00:53N 29°15' W 094°36'0 0.0
2018-Feb-17 00:29N 29°15' W 094°36'0 0.0
2018-Feb-16 23:56N 29°15' W 094°36'0 0.0
2018-Feb-16 23:29N 29°15' W 094°36'0 0.0
2018-Feb-16 22:59N 29°15' W 094°36'0 0.0
2018-Feb-16 22:29N 29°15' W 094°36'0 0.0
2018-Feb-16 21:50N 29°15' W 094°36'25 2.7
2018-Feb-16 12:37N 28°51' W 094°25'213.7
2018-Feb-16 12:30N 28°50' W 094°25'713.6
2018-Feb-16 12:00N 28°43' W 094°25'713.3
2018-Feb-16 11:31N 28°37' W 094°25'713.4
2018-Feb-16 11:00N 28°30' W 094°24'713.4
2018-Feb-16 10:31N 28°23' W 094°24'813.3
2018-Feb-16 09:54N 28°15' W 094°25'2913.4
2018-Feb-16 07:44N 27°46' W 094°25'413.4
2018-Feb-16 07:25N 27°42' W 094°25'2513.8
2018-Feb-16 05:35N 27°17' W 094°26'313.6
2018-Feb-16 05:22N 27°14' W 094°26'46815.1
2018-Feb-14 22:26N 19°33' W 095°55'714.9
2018-Feb-14 22:00N 19°26' W 095°56'815.2
2018-Feb-14 21:30N 19°19' W 095°57'713.8
2018-Feb-14 21:01N 19°13' W 096°01'610.3
2018-Feb-14 20:27N 19°12' W 096°07'1 0.9
2018-Feb-14 18:49N 19°13' W 096°08'0 0.0
2018-Feb-14 18:10N 19°13' W 096°08'0 0.0
2018-Feb-14 17:52N 19°13' W 096°08'0 0.0
2018-Feb-14 17:28N 19°13' W 096°08'0 0.0
2018-Feb-14 16:55N 19°13' W 096°08'0 0.0
2018-Feb-14 16:07N 19°13' W 096°08'0 0.0
2018-Feb-14 15:37N 19°13' W 096°08'0 0.0
2018-Feb-14 15:19N 19°13' W 096°08'0 0.0
2018-Feb-14 14:58N 19°13' W 096°08'0 0.0
2018-Feb-14 14:04N 19°13' W 096°08'0 0.0
2018-Feb-14 13:43N 19°13' W 096°08'0 0.0
2018-Feb-14 13:27N 19°13' W 096°08'0 0.0
2018-Feb-14 11:30N 19°13' W 096°08'0 0.0
2018-Feb-14 09:39N 19°13' W 096°08'0 0.0
2018-Feb-14 09:30N 19°13' W 096°08'0 0.0
2018-Feb-14 09:00N 19°13' W 096°08'0 0.0
2018-Feb-14 08:30N 19°13' W 096°08'0 0.0
2018-Feb-14 08:00N 19°13' W 096°08'0 0.0
2018-Feb-14 07:30N 19°13' W 096°08'0 0.0
2018-Feb-14 07:00N 19°13' W 096°08'0 0.0
2018-Feb-14 06:27N 19°13' W 096°08'0 0.0
2018-Feb-14 06:00N 19°13' W 096°08'0 0.0
2018-Feb-14 05:27N 19°13' W 096°08'0 0.0
2018-Feb-14 05:00N 19°13' W 096°08'0 0.0
2018-Feb-14 04:27N 19°13' W 096°08'0 0.0
2018-Feb-14 04:00N 19°13' W 096°08'0 0.0
2018-Feb-14 03:30N 19°13' W 096°08'0 0.0
2018-Feb-14 03:00N 19°13' W 096°08'0 0.0
2018-Feb-14 01:24N 19°13' W 096°08'0 0.0
2018-Feb-13 22:45N 19°13' W 096°08'0 0.0
2018-Feb-13 22:30N 19°13' W 096°08'0 0.0
2018-Feb-13 21:57N 19°13' W 096°08'0 0.0
2018-Feb-13 21:30N 19°13' W 096°08'0 0.0
2018-Feb-13 21:00N 19°13' W 096°08'0 0.0
2018-Feb-13 20:30N 19°13' W 096°08'0 0.0
2018-Feb-13 20:00N 19°13' W 096°08'0 0.0
2018-Feb-13 19:30N 19°13' W 096°08'0 0.0
2018-Feb-13 18:54N 19°13' W 096°08'0 0.0
2018-Feb-13 18:30N 19°13' W 096°08'0 0.0
2018-Feb-13 18:00N 19°13' W 096°08'0 0.0
2018-Feb-13 17:30N 19°13' W 096°08'0 0.0
2018-Feb-13 17:00N 19°13' W 096°08'0 0.0
2018-Feb-13 16:30N 19°13' W 096°08'0 0.0
2018-Feb-13 16:00N 19°13' W 096°08'0 0.0
2018-Feb-13 15:27N 19°13' W 096°08'0 0.0
2018-Feb-13 15:00N 19°13' W 096°08'0 0.0
2018-Feb-13 14:27N 19°13' W 096°08'0 0.0
2018-Feb-13 13:59N 19°13' W 096°08'0 0.0
2018-Feb-13 13:30N 19°13' W 096°08'1 1.1
2018-Feb-13 13:00N 19°12' W 096°08'3 7.0
2018-Feb-13 12:30N 19°11' W 096°04'4 8.0
2018-Feb-13 12:00N 19°14' W 096°00'5 9.4
2018-Feb-13 11:30N 19°18' W 096°00'612.2
2018-Feb-13 11:00N 19°24' W 096°02'510.0
2018-Feb-13 10:30N 19°29' W 096°04'713.5
2018-Feb-13 10:01N 19°35' W 096°07'  

Dump ship's entire track history